ADDS METAR Data INFO
IDs: Format: Raw Decoded Include TAF

Data at: 1638 UTC 22 Jul 2017

KGDJ 221615Z AUTO 21004KT 10SM CLR 34/21 A2998 RMK AO2 T03400214
KGDJ 221555Z AUTO 22003KT 10SM CLR 34/21 A2998 RMK AO2 T03380213
KGDJ 221535Z AUTO 22005KT 10SM CLR 33/21 A2998 RMK AO2 T03340212
KGDJ 221515Z AUTO 23008KT 10SM CLR 33/21 A2998 RMK AO2 T03280213
KGDJ 221455Z AUTO 22006KT 10SM CLR 32/22 A2999 RMK AO2 T03220218
KGDJ 221435Z AUTO 21006KT 10SM CLR 31/22 A2999 RMK AO2 T03110215
KGDJ 221415Z AUTO 21005KT 10SM CLR 31/21 A2998 RMK AO2 T03060214
KGDJ 221355Z AUTO 21004KT 10SM CLR 30/22 A2998 RMK AO2 T02970215
KGDJ 221335Z AUTO 19004KT 10SM CLR 29/21 A2998 RMK AO2 T02900214
KGDJ 221315Z AUTO 16003KT 10SM CLR 28/22 A2997 RMK AO2 T02810216
KGDJ 221255Z AUTO 10004KT 10SM SCT110 27/22 A2997 RMK AO2 T02730216
KGDJ 221235Z AUTO 12004KT 10SM SCT110 27/22 A2997 RMK AO2 T02710216
KGDJ 221215Z AUTO 00000KT 10SM BKN110 27/22 A2996 RMK AO2 T02660217
KGDJ 221155Z AUTO 10004KT 10SM BKN110 26/21 A2996 RMK AO2 T02640213 10299 20257
KGDJ 221135Z AUTO 00000KT 10SM OVC110 26/21 A2995 RMK AO2 T02630212
KGDJ 221115Z AUTO 00000KT 10SM BKN110 26/21 A2995 RMK AO2 T02620213
KGDJ 221055Z AUTO 00000KT 10SM SCT110 26/21 A2995 RMK AO2 T02610214
KGDJ 221035Z AUTO 00000KT 10SM CLR 26/21 A2995 RMK AO2 T02600211
KGDJ 221015Z AUTO 00000KT 10SM CLR 26/21 A2995 RMK AO2 T02610210
KGDJ 220955Z AUTO 00000KT 10SM CLR 27/21 A2995 RMK AO2 T02650211
KGDJ 220935Z AUTO 14004KT 10SM CLR 27/21 A2994 RMK AO2 T02700210
KGDJ 220915Z AUTO 13005KT 10SM CLR 27/21 A2994 RMK AO2 T02720210
KGDJ 220855Z AUTO 12005KT 10SM CLR 27/21 A2994 RMK AO2 T02720210
KGDJ 220835Z AUTO 13005KT 10SM CLR 28/21 A2995 RMK AO2 T02770210
KGDJ 220815Z AUTO 13006KT 10SM CLR 28/21 A2995 RMK AO2 T02790210
KGDJ 220755Z AUTO 13006KT 10SM CLR 28/21 A2995 RMK AO2 T02820209
KGDJ 220735Z AUTO 14007KT 10SM CLR 29/21 A2995 RMK AO2 T02850207
KGDJ 220715Z AUTO 13009KT 10SM CLR 29/21 A2995 RMK AO2 T02870207
KGDJ 220655Z AUTO 14007KT 10SM CLR 29/21 A2995 RMK AO2 T02900208
KGDJ 220635Z AUTO 14006KT 10SM CLR 29/21 A2996 RMK AO2 T02930209
KGDJ 220615Z AUTO 14006KT 10SM CLR 30/21 A2996 RMK AO2 T02960207
KGDJ 220555Z AUTO 14006KT 10SM CLR 30/21 A2996 RMK AO2 T02980207 10373 20296 403850261
KGDJ 220535Z AUTO 12006KT 10SM CLR 30/21 A2997 RMK AO2 T02980207
KGDJ 220515Z AUTO 13006KT 10SM CLR 30/21 A2997 RMK AO2 T03020206
KGDJ 220455Z AUTO 12007KT 10SM CLR 30/21 A2997 RMK AO2 T03040205
KGDJ 220435Z AUTO 12007KT 10SM CLR 30/21 A2997 RMK AO2 T03040205
KGDJ 220415Z AUTO 12007KT 10SM CLR 31/20 A2997 RMK AO2 T03060203
KGDJ 220355Z AUTO 12009KT 10SM CLR 31/20 A2996 RMK AO2 T03100202
KGDJ 220335Z AUTO 11007KT 10SM CLR 31/20 A2996 RMK AO2 T03130197
KGDJ 220315Z AUTO 11006KT 10SM CLR 32/19 A2995 RMK AO2 T03150193
KGDJ 220255Z AUTO 11005KT 10SM CLR 32/19 A2994 RMK AO2 T03190186
KGDJ 220235Z AUTO 12006KT 10SM CLR 33/18 A2992 RMK AO2 T03250182
KGDJ 220215Z AUTO 12005KT 10SM CLR 33/18 A2992 RMK AO2 T03300182
KGDJ 220155Z AUTO 13006KT 10SM CLR 34/19 A2991 RMK AO2 T03350185
KGDJ 220135Z AUTO 13006KT 10SM CLR 34/19 A2990 RMK AO2 T03420186
KGDJ 220115Z AUTO 12005KT 10SM CLR 35/18 A2990 RMK AO2 T03500178
KGDJ 220055Z AUTO 11007KT 10SM CLR 35/18 A2990 RMK AO2 T03540177
KGDJ 220035Z AUTO 11008KT 10SM CLR 36/18 A2990 RMK AO2 T03600175
KGDJ 220015Z AUTO 11012KT 10SM CLR 37/17 A2990 RMK AO2 T03670174
KGDJ 212355Z AUTO 14009KT 10SM CLR 37/16 A2990 RMK AO2 T03730162 10385 20352
KGDJ 212335Z AUTO 15008KT 10SM CLR 38/17 A2990 RMK AO2 T03750170
KGDJ 212315Z AUTO 13009KT 10SM CLR 38/18 A2991 RMK AO2 T03760176
KGDJ 212255Z AUTO 12009KT 10SM CLR 38/18 A2991 RMK AO2 T03800178
KGDJ 212235Z AUTO 14009G15KT 10SM CLR 38/18 A2992 RMK AO2 T03800178
KGDJ 212215Z AUTO 12009KT 10SM CLR 38/17 A2992 RMK AO2 T03810174
KGDJ 212155Z AUTO 13007KT 10SM SCT070 38/18 A2993 RMK AO2 T03800177
KGDJ 212135Z AUTO 13008KT 10SM BKN070 39/18 A2993 RMK AO2 T03850180
KGDJ 212115Z AUTO 14007KT 10SM CLR 38/18 A2994 RMK AO2 T03760180
KGDJ 212055Z AUTO 13008KT 10SM CLR 38/18 A2995 RMK AO2 T03790178
KGDJ 212035Z AUTO 12008G14KT 10SM CLR 38/18 A2996 RMK AO2 T03820181
KGDJ 212015Z AUTO 15008KT 10SM CLR 37/18 A2997 RMK AO2 T03680179
KGDJ 211955Z AUTO 14009G15KT 10SM SCT090 38/18 A2997 RMK AO2 T03760184
KGDJ 211935Z AUTO 12006KT 10SM SCT090 38/18 A2998 RMK AO2 T03750181
KGDJ 211915Z AUTO 14009KT 10SM CLR 38/18 A2999 RMK AO2 T03770182
KGDJ 211855Z AUTO 13009KT 10SM SCT055 BKN085 37/18 A3000 RMK AO2 T03720179
KGDJ 211835Z AUTO 13004KT 10SM BKN055 BKN070 BKN085 35/19 A3000 RMK AO2 T03530189
KGDJ 211815Z AUTO 17006KT 10SM SCT055 SCT070 BKN085 36/19 A3001 RMK AO2 T03610194
KGDJ 211755Z AUTO 20003KT 10SM CLR 36/20 A3002 RMK AO2 T03590201 10366 20262
KGDJ 211735Z AUTO 17006KT 10SM SCT090 36/20 A3002 RMK AO2 T03600195
KGDJ 211715Z AUTO 16007KT 10SM SCT090 35/20 A3003 RMK AO2 T03540195
KGDJ 211655Z AUTO 17005G14KT 10SM SCT090 36/20 A3003 RMK AO2 T03550200
KGDJ 211635Z AUTO 18007KT 140V220 10SM SCT090 35/21 A3003 RMK AO2 T03520206
KGDJ 211615Z AUTO 18008KT 10SM CLR 35/21 A3004 RMK AO2 T03480206
KGDJ 211555Z AUTO 20007KT 10SM CLR 34/21 A3004 RMK AO2 T03400210
KGDJ 211535Z AUTO 19007KT 150V230 10SM SCT095 33/21 A3004 RMK AO2 T03300210
KGDJ 211515Z AUTO 20006KT 10SM CLR 33/21 A3005 RMK AO2 T03250211
KGDJ 211455Z AUTO 21007KT 10SM SCT110 32/21 A3005 RMK AO2 T03200211
KGDJ 211435Z AUTO 18007KT 10SM SCT110 31/21 A3005 RMK AO2 T03140209
KGDJ 211415Z AUTO 17005KT 10SM CLR 31/21 A3005 RMK AO2 T03070212
KGDJ 211355Z AUTO 17005KT 10SM CLR 30/21 A3005 RMK AO2 T03000211
KGDJ 211335Z AUTO 16006KT 10SM CLR 29/22 A3005 RMK AO2 T02930216
KGDJ 211315Z AUTO 15004KT 10SM CLR 29/22 A3005 RMK AO2 T02850219
KGDJ 211255Z AUTO 13003KT 10SM CLR 28/22 A3004 RMK AO2 T02760219
KGDJ 211235Z AUTO 13005KT 10SM CLR 27/22 A3004 RMK AO2 T02700219
KGDJ 211215Z AUTO 12004KT 10SM SCT085 27/22 A3003 RMK AO2 T02650217
KGDJ 211155Z AUTO 12004KT 10SM SCT085 26/22 A3003 RMK AO2 T02610217 10301 20261
KGDJ 211135Z AUTO 11003KT 10SM CLR 26/22 A3002 RMK AO2 T02630216
KGDJ 211115Z AUTO 00000KT 10SM CLR 26/22 A3002 RMK AO2 T02630216
KGDJ 211055Z AUTO 12003KT 10SM CLR 27/22 A3002 RMK AO2 T02650216
KGDJ 211035Z AUTO 00000KT 10SM CLR 27/22 A3001 RMK AO2 T02650215
KGDJ 211015Z AUTO 12003KT 10SM CLR 27/22 A3001 RMK AO2 T02650215
KGDJ 210955Z AUTO 12003KT 10SM CLR 27/22 A3000 RMK AO2 T02700215
KGDJ 210935Z AUTO 13005KT 10SM CLR 28/21 A3000 RMK AO2 T02750214
KGDJ 210915Z AUTO 13004KT 10SM CLR 28/21 A3001 RMK AO2 T02750214
KGDJ 210855Z AUTO 12006KT 10SM CLR 28/21 A3001 RMK AO2 T02760213
KGDJ 210835Z AUTO 12005KT 10SM CLR 28/21 A3001 RMK AO2 T02770212
KGDJ 210815Z AUTO 12006KT 10SM CLR 28/21 A3002 RMK AO2 T02780212
KGDJ 210755Z AUTO 13006KT 10SM CLR 28/21 A3001 RMK AO2 T02830211
KGDJ 210735Z AUTO 14006KT 10SM CLR 29/21 A3001 RMK AO2 T02860211
KGDJ 210715Z AUTO 13007KT 10SM CLR 29/21 A3002 RMK AO2 T02900211
KGDJ 210655Z AUTO 14005KT 10SM CLR 29/21 A3002 RMK AO2 T02920211
KGDJ 210635Z AUTO 13005KT 10SM CLR 30/21 A3002 RMK AO2 T02950210
KGDJ 210615Z AUTO 13007KT 10SM CLR 30/21 A3002 RMK AO2 T02990210
KGDJ 210555Z AUTO 13009KT 10SM CLR 30/21 A3003 RMK AO2 T03010208 10370 20301 403830257
KGDJ 210535Z AUTO 13006KT 10SM CLR 30/21 A3003 RMK AO2 T03030207
KGDJ 210515Z AUTO 12007KT 10SM CLR 30/21 A3003 RMK AO2 T03030208
KGDJ 210455Z AUTO 12008KT 10SM CLR 31/21 A3003 RMK AO2 T03050209